Pacific City, OR (97135)

7:42 PM PDT on September 18, 2014 (GMT -0700)
Wi-Ne-Ma | Change Station
CLOSE
Current Station
Personal Weather Station
Location: Cloverdale, OR
Elevation: 64 ft
Nearby Weather Stations

Elev 64 ft 45.15 °N, 123.97 °W | Updated 2 minutes ago

Partly Cloudy
Partly Cloudy
68.6 °F
Feels Like 68.6 °F
N
0.0
Wind Variable Wind from West
Gusts 0.0 mph

Today
High -- | Low -- °F
--% Chance of Precip.
Yesterday
High -- | Low -- °F
Precip. -- in
6:58 AM 7:20 PM
Waning Crescent, 22% visible
Pressure 29.96 in
Visibility 10.0 miles
Clouds Scattered Clouds 1500 ft
Dew Point 60 °F
Humidity 73%
Rainfall 0.02 in
Snow Depth 0 in , 0 in , 0 in
UV 0 out of 12
Pollen .40 out of 12
Air Quality Not available.
Flu Activity Not available.
METAR KTMK 190235Z AUTO 00000KT 10SM SCT015 18/15 A2996 RMK AO2

More Conditions Fewer Conditions

Pressure 29.96 in
Visibility 10.0 miles
Clouds Scattered Clouds 1500 ft
Dew Point 60 °F
Humidity 73%
Rainfall 0.02 in
Snow Depth 0 in , 0 in , 0 in
UV 0 out of 12
Pollen .40 out of 12
Air Quality Not available.
Flu Activity Not available.
METAR KTMK 190235Z AUTO 00000KT 10SM SCT015 18/15 A2996 RMK AO2

More Conditions Fewer Conditions

10-Day Weather Forecast

Almanac

Astronomy

Sep. 18, 2014 Rise Set
Actual Time 6:58 AM PDT 7:20 PM PDT
Civil Twilight 6:28 AM PDT 7:50 PM PDT
Nautical Twilight 5:53 AM PDT 8:24 PM PDT
Astronomical Twilight 5:17 AM PDT 9:00 PM PDT
Moon 1:44 AM PDT (9/18) 4:25 PM PDT (9/18)
Length of Visible Light 13h 21m
Length of Day
12h 22m
Tomorrow will be 3m 8s shorter.
Waning Crescent, 22% of the Moon is Illuminated
Today
Waning Crescent
Sep 24
New
Oct 1
First Quarter
Oct 8
Full
Oct 15
Last Quarter

Today's Extremes

State Highs State Lows

Community

WunderPhotos

Upload Photos

1,754,546 photos uploaded!

Nearby

Snow Depth

Station Depth Elevation
Strawberry 0 in 5760 ft
Mckenzie 0 in 4800 ft
Fourmile Lake 0 in 6000 ft
Clackamas Lake 0 in 3400 ft
Blazed Alder 0 in 3650 ft

Earthquake Activity

City Distance Mag. Time & Date
Morton, Washington 108 miles 3.0 5:43 AM PDT
2014-09-16
Minimum magnitude displayed is 2.5.

Coastal Water Temperatures

Place Temperature
Astoria, OR 64.9 °F
Westport, WA 59.0 °F

Nearby Weather Stations